Time;durP1;ratioP1;P1;durP2;ratioP2;P2;SDS_P1;SDS_P2;PMS_P1;PMS_P2;Temp;Humidity;BMP_temperature;BMP_pressure;BME280_temperature;BME280_humidity;BME280_pressure;Samples;Min_cycle;Max_cycle;Signal;HPM_P1;HPM_P2
2021/06/10 08:16:34;;;;;;;;;;;45.30;24.60;;;;;;5069595;28;19966;-73
2021/06/10 08:19:00;;;;;;;;;;;45.50;24.30;;;;;;5069659;28;20277;-73
2021/06/10 08:21:26;;;;;;;;;;;45.60;24.00;;;;;;5068997;28;19924;-73
2021/06/10 08:23:52;;;;;;;;;;;45.90;24.10;;;;;;5069325;28;19921;-73
2021/06/10 08:26:18;;;;;;;;;;;46.70;24.10;;;;;;5069812;28;20292;-73
2021/06/10 08:28:43;;;;;;;;;;;47.20;23.60;;;;;;5073073;28;19924;-72
2021/06/10 08:31:09;;;;;;;;;;;47.70;23.30;;;;;;5074983;28;19917;-74
2021/06/10 08:33:36;;;;;;;;;;;47.90;23.00;;;;;;5074459;28;19970;-72
2021/06/10 08:36:05;;;;;;;;;;;48.10;22.60;;;;;;5074454;28;20418;-72
2021/06/10 08:38:34;;;;;;;;;;;48.10;22.30;;;;;;5074773;28;19931;-72
2021/06/10 08:41:00;;;;;;;;;;;47.60;22.00;;;;;;5073177;28;20327;-72
2021/06/10 08:43:26;;;;;;;;;;;46.90;22.30;;;;;;5074678;28;19943;-72
2021/06/10 08:46:03;;;;;;;;;;;46.20;22.40;;;;;;5072728;28;19922;-73
2021/06/10 08:48:35;;;;;;;;;;;45.80;22.70;;;;;;5074455;28;19939;-74
2021/06/10 08:51:01;;;;;;;;;;;45.70;22.70;;;;;;5074507;28;20010;-72
2021/06/10 08:53:26;;;;;;;;;;;45.60;22.80;;;;;;5074025;28;19944;-75
2021/06/10 08:55:55;;;;;;;;;;;45.70;22.80;;;;;;5073022;28;19951;-73
2021/06/10 08:58:20;;;;;;;;;;;46.10;22.90;;;;;;5072297;28;20442;-72
2021/06/10 09:00:46;;;;;;;;;;;46.60;23.00;;;;;;5073084;28;19921;-73
2021/06/10 09:03:11;;;;;;;;;;;46.80;22.90;;;;;;5074069;28;19924;-72
2021/06/10 09:05:37;;;;;;;;;;;47.40;22.90;;;;;;5073744;28;19920;-74
2021/06/10 09:08:05;;;;;;;;;;;48.00;22.70;;;;;;5074227;28;19917;-73
2021/06/10 09:10:32;;;;;;;;;;;48.60;22.40;;;;;;5072757;28;20007;-73
2021/06/10 09:13:03;;;;;;;;;;;48.50;22.10;;;;;;5073951;28;20015;-72
2021/06/10 09:15:30;;;;;;;;;;;48.50;22.20;;;;;;5073071;28;19924;-73
2021/06/10 09:18:02;;;;;;;;;;;48.70;21.90;;;;;;5072558;28;20000;-72
2021/06/10 09:20:29;;;;;;;;;;;48.60;22.00;;;;;;5074026;28;20016;-73
2021/06/10 09:23:13;;;;;;;;;;;48.80;22.10;;;;;;5073512;28;19965;-72
2021/06/10 09:25:40;;;;;;;;;;;49.20;22.10;;;;;;5074126;28;19923;-73
2021/06/10 09:28:06;;;;;;;;;;;49.20;21.70;;;;;;5073515;28;20364;-73
2021/06/10 09:30:34;;;;;;;;;;;49.20;21.80;;;;;;5073822;28;20391;-74
2021/06/10 09:33:01;;;;;;;;;;;49.70;21.90;;;;;;5073119;28;19920;-73
2021/06/10 09:35:31;;;;;;;;;;;50.10;21.70;;;;;;5072392;28;19947;-72
2021/06/10 09:37:58;;;;;;;;;;;50.30;21.70;;;;;;5071832;28;19923;-74
2021/06/10 09:40:23;;;;;;;;;;;50.50;21.50;;;;;;5073468;28;19924;-72
2021/06/10 09:42:49;;;;;;;;;;;50.50;21.30;;;;;;5073693;28;19917;-72
2021/06/10 09:45:17;;;;;;;;;;;50.20;21.20;;;;;;5073139;28;19928;-73
2021/06/10 09:47:45;;;;;;;;;;;49.40;21.20;;;;;;5072044;28;19947;-72
2021/06/10 09:50:18;;;;;;;;;;;48.90;21.50;;;;;;5070606;28;19932;-74
2021/06/10 09:52:45;;;;;;;;;;;48.70;21.70;;;;;;5071413;28;19921;-73
2021/06/10 09:55:24;;;;;;;;;;;48.50;21.50;;;;;;5072848;28;19935;-73
2021/06/10 09:57:50;;;;;;;;;;;48.40;21.70;;;;;;5073489;28;19921;-70
2021/06/10 10:00:15;;;;;;;;;;;48.60;21.90;;;;;;5071823;28;19930;-69
2021/06/10 10:02:47;;;;;;;;;;;48.90;21.90;;;;;;5072968;28;20293;-70
2021/06/10 10:05:12;;;;;;;;;;;49.00;21.90;;;;;;5071622;28;19917;-70
2021/06/10 10:07:38;;;;;;;;;;;49.10;21.60;;;;;;5072905;28;19916;-70
2021/06/10 10:10:05;;;;;;;;;;;48.90;21.80;;;;;;5072617;28;19923;-69
2021/06/10 10:12:31;;;;;;;;;;;48.70;22.20;;;;;;5073147;28;20343;-69
2021/06/10 10:14:58;;;;;;;;;;;48.70;21.80;;;;;;5072350;28;20209;-70
2021/06/10 10:17:24;;;;;;;;;;;48.80;21.80;;;;;;5071218;28;19917;-68
2021/06/10 10:19:50;;;;;;;;;;;48.60;21.70;;;;;;5072960;28;19928;-70
2021/06/10 10:22:16;;;;;;;;;;;48.30;21.70;;;;;;5072562;28;19920;-69
2021/06/10 10:24:42;;;;;;;;;;;47.90;21.60;;;;;;5072522;28;20003;-70
2021/06/10 10:27:10;;;;;;;;;;;46.90;21.50;;;;;;5072568;28;19920;-69
2021/06/10 10:29:40;;;;;;;;;;;46.40;22.20;;;;;;5072720;28;20156;-69
2021/06/10 10:32:06;;;;;;;;;;;46.50;22.40;;;;;;5071416;28;19916;-70
2021/06/10 10:34:34;;;;;;;;;;;46.80;22.30;;;;;;5070943;28;19924;-70
2021/06/10 10:37:15;;;;;;;;;;;46.70;22.10;;;;;;5073069;28;19917;-70
2021/06/10 10:39:41;;;;;;;;;;;46.60;22.30;;;;;;5072164;28;20047;-70
2021/06/10 10:42:07;;;;;;;;;;;46.70;22.40;;;;;;5070994;28;19959;-68
2021/06/10 10:44:34;;;;;;;;;;;47.00;22.50;;;;;;5072248;28;20254;-69
2021/06/10 10:46:59;;;;;;;;;;;47.10;22.30;;;;;;5070663;28;19989;-68
2021/06/10 10:49:26;;;;;;;;;;;47.30;22.40;;;;;;5071506;28;19963;-70
2021/06/10 10:51:51;;;;;;;;;;;47.60;22.60;;;;;;5069073;28;19924;-68
2021/06/10 10:54:31;;;;;;;;;;;47.80;22.20;;;;;;5069971;28;19917;-66
2021/06/10 10:56:57;;;;;;;;;;;47.70;22.30;;;;;;5058000;28;20494;-68
2021/06/10 10:59:23;;;;;;;;;;;47.90;22.50;;;;;;5050328;28;19941;-67
2021/06/10 11:02:09;;;;;;;;;;;48.50;22.40;;;;;;5049012;28;19913;-69
2021/06/10 11:04:48;;;;;;;;;;;49.10;22.10;;;;;;5049468;28;20011;-66
2021/06/10 11:07:32;;;;;;;;;;;49.40;22.10;;;;;;5049258;28;19916;-68
2021/06/10 11:09:58;;;;;;;;;;;49.20;21.80;;;;;;5050951;28;20289;-69
2021/06/10 11:12:47;;;;;;;;;;;48.50;21.90;;;;;;5050583;28;19919;-69
2021/06/10 11:15:16;;;;;;;;;;;47.00;21.60;;;;;;5050468;28;19917;-68
2021/06/10 11:17:45;;;;;;;;;;;43.70;22.00;;;;;;5050106;28;20008;-68
2021/06/10 11:20:14;;;;;;;;;;;41.40;23.30;;;;;;5016040;28;20015;-68
2021/06/10 11:22:41;;;;;;;;;;;41.30;24.40;;;;;;5048377;28;20343;-68
2021/06/10 11:25:08;;;;;;;;;;;42.70;24.70;;;;;;5048867;28;19916;-67
2021/06/10 11:27:36;;;;;;;;;;;43.60;24.10;;;;;;5048978;28;19916;-68
2021/06/10 11:30:09;;;;;;;;;;;43.80;23.80;;;;;;5049871;28;19925;-68
2021/06/10 11:32:54;;;;;;;;;;;43.30;23.40;;;;;;5050508;28;19928;-69
2021/06/10 11:35:25;;;;;;;;;;;42.50;23.50;;;;;;5049953;28;19917;-69
2021/06/10 11:37:51;;;;;;;;;;;41.00;23.70;;;;;;5048364;28;19917;-67
2021/06/10 11:40:18;;;;;;;;;;;39.70;24.20;;;;;;5048539;28;20335;-68
2021/06/10 11:42:44;;;;;;;;;;;38.60;24.70;;;;;;5050141;28;19917;-69
2021/06/10 11:45:10;;;;;;;;;;;37.50;25.10;;;;;;5048093;28;19994;-69
2021/06/10 11:47:38;;;;;;;;;;;36.80;25.80;;;;;;5049380;28;19921;-68
2021/06/10 11:50:21;;;;;;;;;;;36.50;26.30;;;;;;5051368;28;19917;-69
2021/06/10 11:52:56;;;;;;;;;;;36.40;26.30;;;;;;5049692;28;19932;-68
2021/06/10 11:55:22;;;;;;;;;;;36.40;26.60;;;;;;5050888;28;19924;-66
2021/06/10 11:57:53;;;;;;;;;;;36.60;26.40;;;;;;5049340;28;19956;-66
2021/06/10 12:00:24;;;;;;;;;;;36.50;26.60;;;;;;5048853;28;19928;-68
2021/06/10 12:02:53;;;;;;;;;;;36.30;27.00;;;;;;5053427;28;20007;-68
2021/06/10 12:05:20;;;;;;;;;;;36.20;27.60;;;;;;5053653;28;19917;-67
2021/06/10 12:07:47;;;;;;;;;;;36.10;27.80;;;;;;5054271;28;19975;-68
2021/06/10 12:10:18;;;;;;;;;;;36.10;27.90;;;;;;5054702;28;19927;-68
2021/06/10 12:12:45;;;;;;;;;;;35.80;27.80;;;;;;5063735;28;19960;-67
2021/06/10 12:15:11;;;;;;;;;;;35.40;27.80;;;;;;5066118;28;19928;-67
2021/06/10 12:17:52;;;;;;;;;;;34.90;27.90;;;;;;5066745;28;20013;-69
2021/06/10 12:20:19;;;;;;;;;;;34.40;28.30;;;;;;5068102;28;20377;-67
2021/06/10 12:22:45;;;;;;;;;;;33.90;28.80;;;;;;5065658;28;20354;-66
2021/06/10 12:25:14;;;;;;;;;;;33.80;29.40;;;;;;5068599;28;19917;-68
2021/06/10 12:27:40;;;;;;;;;;;33.80;29.40;;;;;;5068169;28;20352;-68
2021/06/10 12:30:20;;;;;;;;;;;33.60;29.80;;;;;;5066893;28;19952;-67
2021/06/10 12:32:45;;;;;;;;;;;33.30;29.60;;;;;;5065445;28;19923;-68
2021/06/10 12:35:11;;;;;;;;;;;33.00;29.80;;;;;;5066504;28;19916;-67
2021/06/10 12:37:37;;;;;;;;;;;32.80;29.80;;;;;;5064715;28;19917;-68
2021/06/10 12:40:03;;;;;;;;;;;32.40;30.00;;;;;;5066631;28;19924;-68
2021/06/10 12:42:28;;;;;;;;;;;32.20;30.10;;;;;;5068143;28;19917;-68
2021/06/10 12:44:54;;;;;;;;;;;31.90;30.40;;;;;;5066230;28;20044;-68
2021/06/10 12:47:33;;;;;;;;;;;31.70;30.80;;;;;;5065241;28;19916;-72
2021/06/10 12:49:59;;;;;;;;;;;31.40;30.80;;;;;;5088989;28;19916;-72
2021/06/10 12:52:26;;;;;;;;;;;31.10;31.40;;;;;;5063980;28;19924;-71
2021/06/10 12:54:58;;;;;;;;;;;31.10;31.90;;;;;;5057393;28;19916;-70
2021/06/10 12:57:25;;;;;;;;;;;31.10;31.90;;;;;;5056566;28;19927;-70
2021/06/10 12:59:52;;;;;;;;;;;31.00;32.20;;;;;;5055331;28;19925;-70
2021/06/10 13:02:18;;;;;;;;;;;30.80;32.30;;;;;;5061622;28;20023;-71
2021/06/10 13:04:48;;;;;;;;;;;30.70;32.20;;;;;;5075711;28;20340;-70
2021/06/10 13:07:32;;;;;;;;;;;30.50;32.30;;;;;;5077609;28;19920;-70
2021/06/10 13:09:59;;;;;;;;;;;30.30;32.90;;;;;;5077119;28;19923;-70
2021/06/10 13:12:26;;;;;;;;;;;30.20;33.60;;;;;;5075707;28;19912;-68
2021/06/10 13:15:15;;;;;;;;;;;30.20;33.50;;;;;;5073041;28;19917;-68
2021/06/10 13:18:01;;;;;;;;;;;30.10;34.30;;;;;;5074191;28;19916;-70
2021/06/10 13:20:40;;;;;;;;;;;30.00;33.80;;;;;;5073808;28;19932;-68
2021/06/10 13:23:06;;;;;;;;;;;29.90;34.30;;;;;;5073368;28;20458;-69
2021/06/10 13:25:31;;;;;;;;;;;29.80;34.50;;;;;;5055898;28;19921;-68
2021/06/10 13:28:07;;;;;;;;;;;29.70;34.50;;;;;;5072866;28;19917;-70
2021/06/10 13:30:32;;;;;;;;;;;29.60;34.20;;;;;;5073260;28;19916;-70
2021/06/10 13:32:58;;;;;;;;;;;29.40;34.60;;;;;;5071202;28;19924;-69
2021/06/10 13:35:25;;;;;;;;;;;29.20;35.00;;;;;;5072128;28;19916;-69
2021/06/10 13:37:51;;;;;;;;;;;29.10;35.50;;;;;;5055326;28;20285;-69
2021/06/10 13:40:16;;;;;;;;;;;29.10;36.10;;;;;;5073544;28;19928;-70
2021/06/10 13:42:49;;;;;;;;;;;29.10;36.00;;;;;;5071793;28;19928;-69
2021/06/10 13:45:15;;;;;;;;;;;29.10;36.40;;;;;;5072192;28;20001;-70
2021/06/10 13:47:40;;;;;;;;;;;29.10;36.30;;;;;;5073527;28;19917;-70
2021/06/10 13:50:06;;;;;;;;;;;29.10;36.20;;;;;;5072890;28;19927;-70
2021/06/10 13:52:32;;;;;;;;;;;29.10;35.90;;;;;;5073558;28;19916;-69
2021/06/10 13:54:57;;;;;;;;;;;29.10;36.30;;;;;;5072651;28;20513;-69
2021/06/10 13:57:23;;;;;;;;;;;29.00;36.40;;;;;;5071891;28;20404;-69
2021/06/10 13:59:48;;;;;;;;;;;29.10;37.00;;;;;;5073152;28;19921;-69
2021/06/10 14:02:15;;;;;;;;;;;29.00;36.40;;;;;;5071480;28;19916;-69
2021/06/10 14:04:40;;;;;;;;;;;29.00;36.40;;;;;;5071641;28;20343;-69
2021/06/10 14:07:07;;;;;;;;;;;28.90;37.00;;;;;;5072683;28;19920;-69
2021/06/10 14:09:32;;;;;;;;;;;28.90;36.40;;;;;;5069742;28;20427;-70
2021/06/10 14:11:58;;;;;;;;;;;28.80;36.20;;;;;;5068856;28;19920;-71
2021/06/10 14:14:24;;;;;;;;;;;28.70;36.20;;;;;;5071038;28;19916;-70
2021/06/10 14:16:50;;;;;;;;;;;28.50;36.40;;;;;;5071496;28;19916;-70
2021/06/10 14:19:18;;;;;;;;;;;28.40;36.60;;;;;;5071482;28;19935;-70
2021/06/10 14:21:45;;;;;;;;;;;28.40;36.90;;;;;;5070526;28;19925;-69
2021/06/10 14:24:10;;;;;;;;;;;28.40;37.00;;;;;;5071429;28;19921;-69
2021/06/10 14:26:36;;;;;;;;;;;28.30;37.50;;;;;;5072029;28;20300;-67
2021/06/10 14:29:04;;;;;;;;;;;28.30;37.30;;;;;;5069789;28;19923;-70
2021/06/10 14:34:14;;;;;;;;;;;28.10;37.40;;;;;;5070958;28;19916;-70
2021/06/10 14:36:40;;;;;;;;;;;28.10;37.60;;;;;;5070870;28;19944;-70
2021/06/10 14:39:06;;;;;;;;;;;28.20;37.90;;;;;;5069669;28;19932;-70
2021/06/10 14:41:32;;;;;;;;;;;28.20;38.00;;;;;;5070909;28;19912;-70
2021/06/10 14:43:58;;;;;;;;;;;28.30;38.20;;;;;;5070123;28;19948;-70
2021/06/10 14:46:24;;;;;;;;;;;28.30;38.30;;;;;;5072051;28;19975;-70
2021/06/10 14:48:50;;;;;;;;;;;28.20;38.40;;;;;;5072314;28;19932;-69
2021/06/10 14:51:16;;;;;;;;;;;28.30;38.60;;;;;;5072369;28;19921;-70
2021/06/10 14:53:42;;;;;;;;;;;28.30;38.60;;;;;;5071771;28;19940;-70
2021/06/10 14:56:07;;;;;;;;;;;28.30;38.50;;;;;;5070964;28;20300;-69
2021/06/10 14:58:33;;;;;;;;;;;28.20;38.70;;;;;;5071602;28;19920;-70
2021/06/10 15:01:00;;;;;;;;;;;28.20;39.00;;;;;;5072396;28;20372;-71
2021/06/10 15:03:25;;;;;;;;;;;28.10;39.00;;;;;;5071833;28;20300;-70
2021/06/10 15:05:51;;;;;;;;;;;28.10;39.10;;;;;;5070660;28;19927;-69
2021/06/10 15:08:18;;;;;;;;;;;28.20;39.10;;;;;;5072306;28;19916;-70
2021/06/10 15:10:44;;;;;;;;;;;28.10;38.80;;;;;;5071768;28;19923;-68
2021/06/10 15:13:10;;;;;;;;;;;28.10;39.00;;;;;;5073857;28;19916;-69
2021/06/10 15:15:35;;;;;;;;;;;28.00;39.20;;;;;;5072961;28;19916;-69
2021/06/10 15:18:01;;;;;;;;;;;28.00;39.20;;;;;;5071505;28;19939;-69
2021/06/10 15:20:28;;;;;;;;;;;27.90;39.30;;;;;;5070737;28;19974;-70
2021/06/10 15:22:54;;;;;;;;;;;27.80;39.30;;;;;;5071547;28;19991;-69
2021/06/10 15:25:19;;;;;;;;;;;27.80;39.60;;;;;;5069983;28;20004;-69
2021/06/10 15:27:45;;;;;;;;;;;27.80;39.70;;;;;;5065031;28;20392;-70
2021/06/10 15:30:11;;;;;;;;;;;27.80;39.90;;;;;;5065115;28;19916;-70
2021/06/10 15:32:36;;;;;;;;;;;27.70;39.90;;;;;;5071302;28;19948;-70
2021/06/10 15:35:03;;;;;;;;;;;27.70;40.20;;;;;;5070790;28;19916;-70
2021/06/10 15:37:28;;;;;;;;;;;27.60;40.20;;;;;;5070947;28;19924;-70
2021/06/10 15:39:54;;;;;;;;;;;27.60;40.50;;;;;;5069071;28;19920;-70
2021/06/10 15:42:20;;;;;;;;;;;27.50;40.30;;;;;;5070800;28;20407;-70
2021/06/10 15:44:45;;;;;;;;;;;27.40;40.40;;;;;;5069647;28;20005;-70
2021/06/10 15:47:11;;;;;;;;;;;27.40;40.60;;;;;;5051983;28;20386;-70
2021/06/10 15:49:36;;;;;;;;;;;27.40;40.60;;;;;;5051748;28;19924;-69
2021/06/10 15:52:03;;;;;;;;;;;27.40;40.70;;;;;;5071355;28;19916;-70
2021/06/10 15:54:28;;;;;;;;;;;27.40;40.70;;;;;;5053909;28;20000;-70
2021/06/10 15:56:54;;;;;;;;;;;27.40;40.80;;;;;;5067074;28;20007;-70
2021/06/10 15:59:19;;;;;;;;;;;27.40;40.80;;;;;;5057130;28;19921;-74
2021/06/10 16:01:45;;;;;;;;;;;27.40;40.70;;;;;;5060943;28;19921;-66
2021/06/10 16:04:10;;;;;;;;;;;27.40;40.80;;;;;;5062420;28;19931;-66
2021/06/10 16:06:36;;;;;;;;;;;27.30;40.90;;;;;;5054596;28;20343;-66
2021/06/10 16:09:02;;;;;;;;;;;27.20;40.90;;;;;;5066730;28;19956;-66
2021/06/10 16:11:28;;;;;;;;;;;27.20;41.10;;;;;;5058425;28;19917;-65
2021/06/10 16:13:53;;;;;;;;;;;27.10;41.30;;;;;;5054494;28;20391;-64
2021/06/10 16:16:19;;;;;;;;;;;27.10;41.50;;;;;;5038823;28;19945;-66
2021/06/10 16:18:46;;;;;;;;;;;27.10;41.60;;;;;;5057440;28;19921;-66
2021/06/10 16:21:12;;;;;;;;;;;27.00;41.70;;;;;;5067898;28;19920;-66
2021/06/10 16:23:38;;;;;;;;;;;27.00;41.80;;;;;;5070468;28;19924;-67
2021/06/10 16:26:04;;;;;;;;;;;26.90;41.90;;;;;;5071067;28;19916;-66
2021/06/10 16:28:29;;;;;;;;;;;26.90;42.20;;;;;;5070514;28;19919;-65
2021/06/10 16:30:55;;;;;;;;;;;26.80;42.30;;;;;;5071137;28;19991;-65
2021/06/10 16:33:23;;;;;;;;;;;26.80;42.40;;;;;;5070871;28;19917;-67
2021/06/10 16:35:50;;;;;;;;;;;26.70;42.50;;;;;;5070688;28;19916;-65
2021/06/10 16:38:15;;;;;;;;;;;26.70;42.60;;;;;;5070893;28;19927;-68
2021/06/10 16:40:41;;;;;;;;;;;26.60;42.60;;;;;;5070828;28;19920;-66
2021/06/10 16:43:08;;;;;;;;;;;26.50;42.70;;;;;;5068972;28;19962;-66
2021/06/10 16:45:33;;;;;;;;;;;26.50;42.90;;;;;;5071021;28;20347;-65
2021/06/10 16:47:59;;;;;;;;;;;26.50;43.10;;;;;;5071464;28;20005;-65
2021/06/10 16:50:25;;;;;;;;;;;26.50;43.40;;;;;;5074635;28;20422;-64
2021/06/10 16:52:50;;;;;;;;;;;26.50;43.50;;;;;;5074438;28;19916;-65
2021/06/10 16:55:16;;;;;;;;;;;26.50;43.80;;;;;;5074214;28;19916;-64
2021/06/10 16:57:41;;;;;;;;;;;26.40;44.00;;;;;;5074317;28;19965;-65
2021/06/10 17:00:15;;;;;;;;;;;26.30;44.10;;;;;;5074278;28;19920;-65
2021/06/10 17:05:16;;;;;;;;;;;26.10;44.60;;;;;;5072969;28;20438;-65
2021/06/10 17:07:42;;;;;;;;;;;26.00;44.80;;;;;;5073827;28;19952;-65
2021/06/10 17:10:08;;;;;;;;;;;26.00;45.00;;;;;;5073733;28;19974;-65
2021/06/10 17:12:34;;;;;;;;;;;26.00;45.10;;;;;;5071840;28;19978;-66
2021/06/10 17:15:00;;;;;;;;;;;25.90;45.20;;;;;;5063386;28;20211;-65
2021/06/10 17:17:28;;;;;;;;;;;25.90;45.40;;;;;;5053941;28;19923;-66
2021/06/10 17:19:54;;;;;;;;;;;25.80;45.50;;;;;;5035424;28;20311;-65
2021/06/10 17:22:19;;;;;;;;;;;25.80;45.60;;;;;;5054180;28;19916;-66
2021/06/10 17:24:45;;;;;;;;;;;25.70;45.70;;;;;;5051556;28;19921;-66
2021/06/10 17:27:10;;;;;;;;;;;25.60;45.80;;;;;;5053798;28;20293;-65
2021/06/10 17:29:37;;;;;;;;;;;25.60;45.80;;;;;;5053918;28;19967;-64
2021/06/10 17:32:03;;;;;;;;;;;25.50;46.40;;;;;;5051962;28;19924;-66
2021/06/10 17:34:28;;;;;;;;;;;25.40;45.80;;;;;;5053384;28;19917;-66
2021/06/10 17:36:54;;;;;;;;;;;25.40;46.10;;;;;;5053752;28;20396;-67
2021/06/10 17:39:19;;;;;;;;;;;25.30;46.10;;;;;;5053187;28;20012;-65
2021/06/10 17:41:45;;;;;;;;;;;25.20;46.20;;;;;;5053640;28;19917;-66
2021/06/10 17:44:10;;;;;;;;;;;25.10;46.00;;;;;;5052927;28;19924;-66
2021/06/10 17:46:36;;;;;;;;;;;25.00;46.00;;;;;;5053477;28;20025;-66
2021/06/10 17:49:02;;;;;;;;;;;24.90;46.20;;;;;;5053505;28;19917;-67
2021/06/10 17:51:27;;;;;;;;;;;24.80;46.20;;;;;;5034872;28;19917;-65
2021/06/10 17:53:53;;;;;;;;;;;24.80;46.20;;;;;;5051061;28;20491;-64
2021/06/10 17:56:18;;;;;;;;;;;24.70;46.20;;;;;;5035205;28;19925;-66
2021/06/10 17:58:44;;;;;;;;;;;24.60;46.00;;;;;;5052513;28;20171;-65
2021/06/10 18:01:10;;;;;;;;;;;24.50;45.90;;;;;;5053398;28;19917;-64
2021/06/10 18:03:35;;;;;;;;;;;24.40;45.90;;;;;;5052815;28;19920;-64
2021/06/10 18:06:01;;;;;;;;;;;24.40;45.90;;;;;;5052713;28;19920;-66
2021/06/10 18:08:27;;;;;;;;;;;24.30;45.70;;;;;;5053084;28;19916;-66
2021/06/10 18:10:53;;;;;;;;;;;24.20;45.70;;;;;;5052682;28;19921;-66
2021/06/10 18:13:18;;;;;;;;;;;24.10;45.60;;;;;;5052820;28;19917;-65
2021/06/10 18:15:44;;;;;;;;;;;24.00;45.70;;;;;;5051606;28;19921;-65
2021/06/10 18:18:10;;;;;;;;;;;24.00;45.80;;;;;;5051233;28;19955;-66
2021/06/10 18:20:35;;;;;;;;;;;23.90;45.90;;;;;;5052744;28;20004;-65
2021/06/10 18:23:01;;;;;;;;;;;23.90;45.90;;;;;;5051420;28;20003;-65
2021/06/10 18:25:27;;;;;;;;;;;23.80;45.90;;;;;;5052316;28;19950;-65
2021/06/10 18:27:53;;;;;;;;;;;23.70;45.90;;;;;;5051457;28;19924;-66
2021/06/10 18:30:19;;;;;;;;;;;23.60;46.00;;;;;;5052271;28;19917;-65
2021/06/10 18:32:44;;;;;;;;;;;23.60;46.20;;;;;;5052727;28;19963;-64
2021/06/10 18:35:10;;;;;;;;;;;23.40;46.30;;;;;;5052209;28;20031;-65
2021/06/10 18:37:36;;;;;;;;;;;23.40;46.50;;;;;;5050644;28;19935;-66
2021/06/10 18:40:02;;;;;;;;;;;23.20;46.40;;;;;;5050399;28;19925;-65
2021/06/10 18:42:28;;;;;;;;;;;23.10;46.40;;;;;;5048310;28;19924;-66
2021/06/10 18:44:53;;;;;;;;;;;23.00;46.30;;;;;;5047059;28;20412;-66
2021/06/10 18:47:19;;;;;;;;;;;22.90;46.40;;;;;;5049331;28;20007;-66
2021/06/10 18:49:46;;;;;;;;;;;22.70;46.40;;;;;;5049865;28;19923;-64
2021/06/10 18:52:12;;;;;;;;;;;22.70;46.40;;;;;;5050165;28;20437;-65
2021/06/10 18:54:38;;;;;;;;;;;22.60;46.30;;;;;;5048563;28;19928;-65
2021/06/10 18:57:04;;;;;;;;;;;22.40;46.20;;;;;;5051370;28;20365;-64
2021/06/10 18:59:29;;;;;;;;;;;22.30;46.30;;;;;;5052433;28;19925;-66
2021/06/10 19:01:55;;;;;;;;;;;22.30;46.40;;;;;;5050391;28;19931;-65
2021/06/10 19:04:21;;;;;;;;;;;22.20;46.40;;;;;;5052110;28;20376;-65
2021/06/10 19:06:46;;;;;;;;;;;22.10;46.40;;;;;;5071850;28;19916;-66
2021/06/10 19:09:12;;;;;;;;;;;22.00;46.40;;;;;;5070962;28;20286;-65
2021/06/10 19:11:38;;;;;;;;;;;21.90;46.40;;;;;;5069783;28;19924;-67
2021/06/10 19:14:03;;;;;;;;;;;21.90;46.40;;;;;;5071758;28;19916;-66
2021/06/10 19:16:29;;;;;;;;;;;21.80;46.50;;;;;;5070207;28;20003;-66
2021/06/10 19:18:54;;;;;;;;;;;21.80;46.50;;;;;;5071827;28;19947;-66
2021/06/10 19:21:21;;;;;;;;;;;21.70;46.60;;;;;;5071574;28;19917;-66
2021/06/10 19:23:47;;;;;;;;;;;21.60;46.60;;;;;;5071499;28;20365;-66
2021/06/10 19:26:13;;;;;;;;;;;21.50;46.70;;;;;;5071694;28;19923;-66
2021/06/10 19:28:39;;;;;;;;;;;21.50;46.90;;;;;;5071202;28;19923;-66
2021/06/10 19:31:05;;;;;;;;;;;21.40;47.00;;;;;;5071701;28;19927;-65
2021/06/10 19:33:32;;;;;;;;;;;21.40;47.20;;;;;;5071636;28;19916;-65
2021/06/10 19:36:01;;;;;;;;;;;21.30;47.30;;;;;;5071165;28;20387;-66
2021/06/10 19:38:28;;;;;;;;;;;21.20;47.50;;;;;;5071531;28;20391;-65
2021/06/10 19:40:57;;;;;;;;;;;21.10;47.70;;;;;;5070947;28;19925;-65
2021/06/10 19:43:25;;;;;;;;;;;20.90;47.80;;;;;;5071368;28;20339;-65
2021/06/10 19:45:51;;;;;;;;;;;20.90;48.00;;;;;;5070006;28;19963;-67
2021/06/10 19:48:24;;;;;;;;;;;20.80;48.20;;;;;;5071401;28;19923;-65
2021/06/10 19:50:50;;;;;;;;;;;20.70;48.30;;;;;;5071547;28;19916;-65
2021/06/10 19:53:17;;;;;;;;;;;20.60;48.40;;;;;;5071039;28;20269;-66
2021/06/10 19:55:46;;;;;;;;;;;20.50;48.40;;;;;;5071404;28;19920;-66
2021/06/10 19:58:12;;;;;;;;;;;20.50;48.50;;;;;;5071024;28;19924;-66
2021/06/10 20:00:38;;;;;;;;;;;20.40;48.60;;;;;;5071334;28;19938;-66
2021/06/10 20:03:04;;;;;;;;;;;20.30;48.60;;;;;;5069571;28;19921;-66
2021/06/10 20:05:30;;;;;;;;;;;20.20;48.70;;;;;;5071343;28;19924;-65
2021/06/10 20:07:55;;;;;;;;;;;20.10;48.80;;;;;;5069777;28;19947;-66
2021/06/10 20:10:21;;;;;;;;;;;20.00;48.90;;;;;;5071132;28;20396;-66
2021/06/10 20:12:47;;;;;;;;;;;19.90;49.00;;;;;;5071149;28;19916;-66
2021/06/10 20:15:13;;;;;;;;;;;19.80;49.20;;;;;;5071141;28;19916;-66
2021/06/10 20:17:39;;;;;;;;;;;19.70;49.40;;;;;;5070543;28;19920;-65
2021/06/10 20:20:05;;;;;;;;;;;19.60;49.60;;;;;;5071247;28;19924;-65
2021/06/10 20:22:31;;;;;;;;;;;19.50;49.80;;;;;;5073245;28;19917;-66
2021/06/10 20:24:57;;;;;;;;;;;19.40;50.00;;;;;;5074755;28;19921;-66
2021/06/10 20:32:33;;;;;;;;;;;19.10;51.00;;;;;;5075148;28;19917;-65
2021/06/10 20:34:59;;;;;;;;;;;19.00;51.30;;;;;;5074405;28;19916;-66
2021/06/10 20:37:25;;;;;;;;;;;18.90;51.60;;;;;;5074936;28;20003;-66
2021/06/10 20:39:51;;;;;;;;;;;18.80;51.90;;;;;;5074978;28;20011;-66
2021/06/10 20:42:17;;;;;;;;;;;18.60;52.20;;;;;;5074440;28;19921;-65
2021/06/10 20:44:43;;;;;;;;;;;18.50;52.40;;;;;;5074636;28;19970;-65
2021/06/10 20:47:08;;;;;;;;;;;18.40;52.70;;;;;;5074630;28;20330;-65
2021/06/10 20:49:34;;;;;;;;;;;18.30;52.90;;;;;;5074349;28;20007;-65
2021/06/10 20:51:59;;;;;;;;;;;18.20;53.10;;;;;;5073695;28;19923;-67
2021/06/10 20:54:25;;;;;;;;;;;18.20;53.30;;;;;;5072812;28;19921;-69
2021/06/10 20:56:52;;;;;;;;;;;18.10;53.50;;;;;;5074624;28;19943;-67
2021/06/10 20:59:17;;;;;;;;;;;18.00;53.80;;;;;;5074739;28;19925;-68
2021/06/10 21:01:43;;;;;;;;;;;17.90;54.10;;;;;;5073656;28;20031;-68
2021/06/10 21:04:09;;;;;;;;;;;17.90;54.40;;;;;;5074466;28;19916;-68
2021/06/10 21:06:35;;;;;;;;;;;17.70;54.60;;;;;;5074570;28;20376;-68
2021/06/10 21:09:00;;;;;;;;;;;17.60;54.80;;;;;;5072636;28;19920;-68
2021/06/10 21:11:27;;;;;;;;;;;17.50;55.20;;;;;;5074550;28;20403;-69
2021/06/10 21:13:53;;;;;;;;;;;17.40;55.50;;;;;;5072385;28;19964;-68
2021/06/10 21:16:18;;;;;;;;;;;17.20;55.70;;;;;;5071748;28;19947;-66
2021/06/10 21:18:44;;;;;;;;;;;17.10;56.10;;;;;;5073781;28;19921;-68
2021/06/10 21:21:09;;;;;;;;;;;17.10;56.50;;;;;;5074191;28;19931;-67
2021/06/10 21:23:35;;;;;;;;;;;17.00;56.80;;;;;;5074105;28;19927;-69
2021/06/10 21:26:01;;;;;;;;;;;16.90;57.00;;;;;;5074274;28;19991;-68
2021/06/10 21:28:27;;;;;;;;;;;16.90;57.20;;;;;;5073733;28;20360;-68
2021/06/10 21:30:53;;;;;;;;;;;16.80;57.30;;;;;;5074089;28;19950;-68
2021/06/10 21:33:18;;;;;;;;;;;16.70;57.50;;;;;;5072958;28;20007;-68
2021/06/10 21:35:44;;;;;;;;;;;16.60;57.60;;;;;;5073820;28;20369;-69
2021/06/10 21:38:09;;;;;;;;;;;16.60;57.80;;;;;;5054811;28;19974;-66
2021/06/10 21:40:35;;;;;;;;;;;16.50;57.90;;;;;;5073355;28;19931;-67
2021/06/10 21:43:01;;;;;;;;;;;16.40;58.10;;;;;;5073610;28;20410;-68
2021/06/10 21:45:27;;;;;;;;;;;16.40;58.20;;;;;;5073326;28;20376;-68
2021/06/10 21:47:52;;;;;;;;;;;16.30;58.30;;;;;;5073927;28;19916;-68
2021/06/10 21:50:18;;;;;;;;;;;16.30;58.50;;;;;;5073766;28;19939;-68
2021/06/10 21:52:44;;;;;;;;;;;16.20;58.50;;;;;;5073423;28;19916;-68
2021/06/10 21:55:09;;;;;;;;;;;16.10;58.70;;;;;;5073654;28;20026;-67
2021/06/10 21:57:35;;;;;;;;;;;16.10;59.00;;;;;;5073440;28;20266;-68
2021/06/10 22:00:06;;;;;;;;;;;16.00;59.10;;;;;;5072149;28;19932;-74
2021/06/10 22:02:31;;;;;;;;;;;15.90;59.30;;;;;;5073463;28;19997;-74
2021/06/10 22:05:00;;;;;;;;;;;15.90;59.40;;;;;;5072672;28;19947;-74
2021/06/10 22:07:26;;;;;;;;;;;15.80;59.50;;;;;;5073604;28;19924;-75
2021/06/10 22:09:51;;;;;;;;;;;15.70;59.70;;;;;;5073416;28;19916;-74
2021/06/10 22:12:17;;;;;;;;;;;15.70;60.00;;;;;;5072654;28;19927;-74
2021/06/10 22:14:42;;;;;;;;;;;15.60;60.00;;;;;;5071641;28;19931;-74
2021/06/10 22:17:08;;;;;;;;;;;15.60;60.20;;;;;;5073032;28;19944;-74
2021/06/10 22:19:35;;;;;;;;;;;15.60;60.30;;;;;;5071465;28;19925;-75
2021/06/10 22:22:01;;;;;;;;;;;15.50;60.50;;;;;;5073147;28;20031;-75
2021/06/10 22:24:27;;;;;;;;;;;15.50;60.70;;;;;;5072506;28;20396;-74
2021/06/10 22:26:53;;;;;;;;;;;15.50;61.00;;;;;;5073089;28;19916;-74
2021/06/10 22:29:21;;;;;;;;;;;15.40;61.20;;;;;;5071663;28;20012;-74
2021/06/10 22:31:47;;;;;;;;;;;15.40;61.40;;;;;;5072657;28;19924;-75
2021/06/10 22:34:13;;;;;;;;;;;15.30;62.10;;;;;;5072302;28;19917;-73
2021/06/10 22:36:38;;;;;;;;;;;15.30;62.00;;;;;;5068723;28;20227;-74
2021/06/10 22:39:04;;;;;;;;;;;15.20;62.20;;;;;;5070663;28;19924;-75
2021/06/10 22:41:30;;;;;;;;;;;15.20;62.50;;;;;;5070732;28;19923;-74